Time;durP1;ratioP1;P1;durP2;ratioP2;P2;SDS_P1;SDS_P2;PMS_P1;PMS_P2;Temp;Humidity;BMP_temperature;BMP_pressure;BME280_temperature;BME280_humidity;BME280_pressure;Samples;Min_cycle;Max_cycle;Signal;HPM_P1;HPM_P2
2024/01/08 00:01:32;;;;;;;15.48;8.23;;;-0.90;84.00;;;;;;5093510;28;20032;-71
2024/01/08 00:03:58;;;;;;;13.73;8.55;;;-0.90;84.10;;;;;;5094259;28;20034;-71
2024/01/08 00:06:24;;;;;;;14.50;8.48;;;-0.90;84.10;;;;;;5093542;28;20110;-71
2024/01/08 00:08:49;;;;;;;13.25;8.65;;;-0.90;84.50;;;;;;5092114;28;20044;-72
2024/01/08 00:11:15;;;;;;;13.70;7.97;;;-0.90;84.90;;;;;;5093466;28;20105;-71
2024/01/08 00:13:41;;;;;;;14.23;8.70;;;-0.90;85.40;;;;;;5093106;28;20024;-72
2024/01/08 00:16:07;;;;;;;14.98;8.57;;;-1.00;85.70;;;;;;5093647;28;20460;-71
2024/01/08 00:18:32;;;;;;;12.02;7.90;;;-0.90;86.20;;;;;;5092784;28;20039;-71
2024/01/08 00:20:59;;;;;;;13.27;8.35;;;-1.00;86.60;;;;;;5093720;28;20110;-71
2024/01/08 00:23:26;;;;;;;13.45;8.55;;;-0.90;86.90;;;;;;5093607;28;20104;-70
2024/01/08 00:25:52;;;;;;;14.00;8.85;;;-0.90;85.90;;;;;;5093226;28;20028;-71
2024/01/08 00:28:17;;;;;;;14.02;9.00;;;-1.00;85.60;;;;;;5093337;28;20023;-71
2024/01/08 00:30:43;;;;;;;14.10;8.27;;;-1.00;85.80;;;;;;5093259;28;20076;-71
2024/01/08 00:33:09;;;;;;;14.88;8.60;;;-1.00;85.80;;;;;;5093544;28;20059;-71
2024/01/08 00:35:35;;;;;;;11.75;8.10;;;-1.00;86.40;;;;;;5091693;28;20024;-71
2024/01/08 00:38:00;;;;;;;15.05;8.88;;;-1.00;84.50;;;;;;5093181;28;20081;-72
2024/01/08 00:40:26;;;;;;;12.82;8.23;;;-1.00;83.80;;;;;;5092821;28;20058;-70
2024/01/08 00:42:52;;;;;;;14.05;8.80;;;-1.00;83.50;;;;;;5091476;28;20264;-70
2024/01/08 00:45:17;;;;;;;12.00;7.78;;;-1.00;84.00;;;;;;5091689;28;20461;-71
2024/01/08 00:47:43;;;;;;;14.23;8.70;;;-1.00;84.20;;;;;;5092787;28;20035;-72
2024/01/08 00:50:13;;;;;;;14.15;8.75;;;-1.00;83.00;;;;;;5093224;28;20417;-70
2024/01/08 00:52:39;;;;;;;12.00;7.78;;;-1.00;82.10;;;;;;5092762;28;20142;-72
2024/01/08 00:55:06;;;;;;;14.93;8.43;;;-1.00;82.10;;;;;;5091650;28;20028;-71
2024/01/08 00:57:32;;;;;;;16.58;8.60;;;-1.10;82.80;;;;;;5092717;28;20067;-71
2024/01/08 00:59:57;;;;;;;14.70;8.50;;;-1.20;83.30;;;;;;5092513;28;20052;-71
2024/01/08 01:02:23;;;;;;;12.32;8.57;;;-1.20;83.60;;;;;;5092568;28;20073;-71
2024/01/08 01:04:49;;;;;;;14.68;8.93;;;-1.20;84.00;;;;;;5090357;28;20116;-71
2024/01/08 01:07:14;;;;;;;14.45;8.90;;;-1.20;84.10;;;;;;5095031;28;20024;-70
2024/01/08 01:09:40;;;;;;;15.10;9.27;;;-1.20;84.10;;;;;;5112727;28;20031;-71
2024/01/08 01:12:06;;;;;;;13.32;9.02;;;-1.20;83.90;;;;;;5112676;28;20031;-71
2024/01/08 01:14:31;;;;;;;15.07;8.60;;;-1.20;84.00;;;;;;5093125;28;20115;-70
2024/01/08 01:16:57;;;;;;;15.88;9.02;;;-1.20;84.30;;;;;;5092103;28;20051;-71
2024/01/08 01:19:23;;;;;;;14.68;8.65;;;-1.20;84.70;;;;;;5092185;28;20028;-71
2024/01/08 01:21:49;;;;;;;17.17;8.82;;;-1.20;85.00;;;;;;5092013;28;20024;-71
2024/01/08 01:24:14;;;;;;;19.05;9.73;;;-1.20;84.90;;;;;;5092336;28;20036;-71
2024/01/08 01:26:40;;;;;;;14.57;9.00;;;-1.20;84.40;;;;;;5091557;28;20112;-73
2024/01/08 01:29:06;;;;;;;13.85;9.43;;;-1.20;84.30;;;;;;5091653;28;20021;-72
2024/01/08 01:31:33;;;;;;;14.95;9.25;;;-1.30;84.40;;;;;;5091113;28;20032;-70
2024/01/08 01:33:59;;;;;;;13.27;8.40;;;-1.30;84.80;;;;;;5091994;28;20045;-70
2024/01/08 01:36:25;;;;;;;15.63;9.93;;;-1.30;85.10;;;;;;5092424;28;20039;-71
2024/01/08 01:38:51;;;;;;;14.80;8.82;;;-1.30;85.40;;;;;;5090248;28;20024;-71
2024/01/08 01:41:16;;;;;;;16.48;10.25;;;-1.30;85.70;;;;;;5092074;28;20115;-71
2024/01/08 01:43:42;;;;;;;15.90;9.75;;;-1.20;85.30;;;;;;5096359;28;20040;-71
2024/01/08 01:46:20;;;;;;;15.88;9.93;;;-1.20;85.10;;;;;;5103132;28;20460;-71
2024/01/08 01:48:46;;;;;;;17.33;10.23;;;-1.30;85.20;;;;;;5101596;28;20472;-71
2024/01/08 01:51:12;;;;;;;17.67;10.43;;;-1.20;85.20;;;;;;5099602;28;20136;-71
2024/01/08 01:53:38;;;;;;;14.52;10.07;;;-1.20;85.50;;;;;;5101561;28;20097;-74
2024/01/08 01:56:04;;;;;;;14.60;10.00;;;-1.20;86.20;;;;;;5102496;28;20056;-71
2024/01/08 01:58:29;;;;;;;17.77;10.63;;;-1.20;86.70;;;;;;5098585;28;20017;-71
2024/01/08 02:00:55;;;;;;;17.10;10.57;;;-1.20;86.40;;;;;;5096752;28;20040;-71
2024/01/08 02:03:21;;;;;;;16.27;10.35;;;-1.20;86.20;;;;;;5094522;28;20036;-71
2024/01/08 02:05:48;;;;;;;15.23;10.35;;;-1.20;85.80;;;;;;5096716;28;20082;-71
2024/01/08 02:08:13;;;;;;;17.17;11.00;;;-1.20;85.90;;;;;;5099532;28;20535;-71
2024/01/08 02:10:40;;;;;;;15.00;10.10;;;-1.20;86.00;;;;;;5101058;28;20115;-75
2024/01/08 02:13:06;;;;;;;16.00;9.93;;;-1.20;85.70;;;;;;5100828;28;20107;-71
2024/01/08 02:15:31;;;;;;;15.52;9.75;;;-1.20;85.20;;;;;;5103488;28;20047;-72
2024/01/08 02:17:57;;;;;;;15.65;9.82;;;-1.20;85.50;;;;;;5105006;28;20433;-72
2024/01/08 02:20:23;;;;;;;14.73;10.52;;;-1.30;85.80;;;;;;5105615;28;20028;-72
2024/01/08 02:22:48;;;;;;;16.33;10.45;;;-1.30;86.40;;;;;;5105772;28;20415;-71
2024/01/08 02:25:14;;;;;;;16.67;11.27;;;-1.30;87.30;;;;;;5100686;28;20024;-70
2024/01/08 02:27:40;;;;;;;18.25;11.18;;;-1.40;88.00;;;;;;5095518;28;20012;-71
2024/01/08 02:30:06;;;;;;;16.88;10.77;;;-1.30;88.70;;;;;;5095348;28;20031;-71
2024/01/08 02:32:32;;;;;;;18.25;11.40;;;-1.30;89.40;;;;;;5096093;28;20090;-70
2024/01/08 02:34:57;;;;;;;17.27;11.20;;;-1.30;89.90;;;;;;5095286;28;20028;-71
2024/01/08 02:37:23;;;;;;;18.02;11.52;;;-1.30;89.60;;;;;;5095240;28;20476;-71
2024/01/08 02:39:49;;;;;;;16.20;10.68;;;-1.30;89.90;;;;;;5094161;28;20406;-70
2024/01/08 02:42:17;;;;;;;17.55;11.32;;;-1.30;90.10;;;;;;5094869;28;20056;-71
2024/01/08 02:44:43;;;;;;;17.27;11.82;;;-1.40;89.70;;;;;;5094999;28;20411;-75
2024/01/08 02:47:09;;;;;;;18.23;11.20;;;-1.30;90.20;;;;;;5076324;28;20020;-70
2024/01/08 02:49:34;;;;;;;18.38;11.15;;;-1.30;90.40;;;;;;5094771;28;20035;-70
2024/01/08 02:52:00;;;;;;;18.55;10.73;;;-1.30;90.40;;;;;;5094752;28;20032;-71
2024/01/08 02:54:26;;;;;;;16.15;11.45;;;-1.30;90.50;;;;;;5093768;28;20502;-71
2024/01/08 02:56:52;;;;;;;17.17;11.73;;;-1.30;90.60;;;;;;5094075;28;20034;-71
2024/01/08 02:59:17;;;;;;;16.63;11.00;;;-1.30;90.60;;;;;;5094236;28;20127;-71
2024/01/08 03:01:43;;;;;;;16.27;11.13;;;-1.30;90.40;;;;;;5095155;28;20077;-71
2024/01/08 03:04:09;;;;;;;17.10;10.43;;;-1.30;90.10;;;;;;5094862;28;20449;-71
2024/01/08 03:06:34;;;;;;;16.25;11.02;;;-1.40;90.10;;;;;;5093481;28;20021;-71
2024/01/08 03:09:00;;;;;;;15.98;10.90;;;-1.30;90.10;;;;;;5094530;28;20452;-71
2024/01/08 03:11:27;;;;;;;14.90;9.75;;;-1.30;89.10;;;;;;5094864;28;20024;-71
2024/01/08 03:13:52;;;;;;;18.00;10.98;;;-1.30;88.00;;;;;;5094543;28;20369;-71
2024/01/08 03:16:18;;;;;;;18.13;10.52;;;-1.40;87.50;;;;;;5095761;28;20019;-71
2024/01/08 03:18:45;;;;;;;16.90;10.38;;;-1.40;87.30;;;;;;5094827;28;20020;-71
2024/01/08 03:21:11;;;;;;;14.73;9.80;;;-1.40;87.20;;;;;;5093384;28;20028;-71
2024/01/08 03:23:37;;;;;;;17.67;10.48;;;-1.40;86.60;;;;;;5094566;28;20028;-71
2024/01/08 03:26:03;;;;;;;15.20;9.65;;;-1.40;86.80;;;;;;5094428;28;20039;-71
2024/01/08 03:28:28;;;;;;;15.52;10.45;;;-1.40;86.80;;;;;;5094050;28;20028;-72
2024/01/08 03:30:54;;;;;;;16.27;10.50;;;-1.40;86.90;;;;;;5094309;28;20089;-71
2024/01/08 03:33:19;;;;;;;16.20;9.63;;;-1.40;86.90;;;;;;5094772;28;20115;-71
2024/01/08 03:35:45;;;;;;;18.05;10.80;;;-1.50;87.20;;;;;;5094399;28;20022;-71
2024/01/08 03:38:11;;;;;;;19.25;10.60;;;-1.50;87.20;;;;;;5094256;28;20134;-71
2024/01/08 03:40:36;;;;;;;17.73;10.13;;;-1.50;87.20;;;;;;5092998;28;20113;-71
2024/01/08 03:43:02;;;;;;;17.67;10.32;;;-1.50;87.30;;;;;;5094109;28;20107;-71
2024/01/08 03:45:28;;;;;;;14.38;10.02;;;-1.50;87.40;;;;;;5093409;28;20111;-71
2024/01/08 03:47:54;;;;;;;13.93;9.27;;;-1.50;86.70;;;;;;5092777;28;20032;-71
2024/01/08 03:50:19;;;;;;;16.95;10.85;;;-1.50;86.70;;;;;;5092613;28;20024;-70
2024/01/08 03:52:45;;;;;;;16.52;10.13;;;-1.50;86.90;;;;;;5094356;28;20024;-71
2024/01/08 03:55:11;;;;;;;15.32;10.02;;;-1.50;86.70;;;;;;5093919;28;20468;-71
2024/01/08 03:57:36;;;;;;;14.75;10.48;;;-1.60;86.70;;;;;;5093086;28;20086;-72
2024/01/08 04:00:03;;;;;;;17.05;10.88;;;-1.60;87.00;;;;;;5093825;28;20044;-72
2024/01/08 04:02:29;;;;;;;18.40;10.85;;;-1.60;87.30;;;;;;5093890;28;20028;-71
2024/01/08 04:04:54;;;;;;;15.30;11.05;;;-1.60;87.30;;;;;;5093720;28;20499;-72
2024/01/08 04:07:20;;;;;;;15.70;10.00;;;-1.50;87.40;;;;;;5094214;28;20024;-71
2024/01/08 04:09:45;;;;;;;16.45;10.00;;;-1.50;87.10;;;;;;5093738;28;20115;-70
2024/01/08 04:12:12;;;;;;;15.60;10.32;;;-1.50;86.70;;;;;;5092209;28;20024;-71
2024/01/08 04:14:38;;;;;;;18.45;10.73;;;-1.50;86.70;;;;;;5093886;28;20032;-71
2024/01/08 04:17:05;;;;;;;16.23;9.75;;;-1.50;86.40;;;;;;5093163;28;20020;-71
2024/01/08 04:19:31;;;;;;;19.25;10.63;;;-1.50;86.80;;;;;;5093714;28;20064;-71
2024/01/08 04:21:57;;;;;;;16.23;10.48;;;-1.50;86.20;;;;;;5093233;28;20432;-71
2024/01/08 04:24:22;;;;;;;15.13;10.13;;;-1.60;86.20;;;;;;5093215;28;20035;-72
2024/01/08 04:26:48;;;;;;;17.95;10.20;;;-1.60;86.90;;;;;;5093187;28;20024;-71
2024/01/08 04:29:14;;;;;;;17.60;11.20;;;-1.70;87.40;;;;;;5092803;28;20031;-72
2024/01/08 04:31:39;;;;;;;15.85;10.20;;;-1.70;87.20;;;;;;5093520;28;20024;-70
2024/01/08 04:34:05;;;;;;;16.65;10.23;;;-1.70;86.90;;;;;;5092613;28;20062;-71
2024/01/08 04:36:30;;;;;;;15.00;9.85;;;-1.70;87.20;;;;;;5092218;28;20102;-71
2024/01/08 04:38:56;;;;;;;17.20;9.88;;;-1.70;87.50;;;;;;5090784;28;20030;-71
2024/01/08 04:41:22;;;;;;;15.40;10.07;;;-1.70;87.10;;;;;;5092869;28;20032;-71
2024/01/08 04:43:48;;;;;;;16.73;10.38;;;-1.70;86.90;;;;;;5092055;28;20024;-71
2024/01/08 04:46:14;;;;;;;16.08;10.13;;;-1.70;86.90;;;;;;5092732;28;20031;-71
2024/01/08 04:48:43;;;;;;;16.98;10.40;;;-1.70;87.00;;;;;;5093135;28;20019;-71
2024/01/08 04:51:08;;;;;;;16.08;9.98;;;-1.70;86.90;;;;;;5091070;28;20162;-70
2024/01/08 04:53:36;;;;;;;15.52;10.48;;;-1.70;86.90;;;;;;5092979;28;20107;-70
2024/01/08 04:56:02;;;;;;;17.90;10.52;;;-1.70;86.60;;;;;;5092429;28;20047;-71
2024/01/08 04:58:28;;;;;;;18.30;10.95;;;-1.70;86.90;;;;;;5092242;28;20085;-71
2024/01/08 05:00:54;;;;;;;16.60;10.43;;;-1.80;87.00;;;;;;5091475;28;20032;-74
2024/01/08 05:03:19;;;;;;;18.58;10.55;;;-1.70;87.10;;;;;;5092844;28;20355;-71
2024/01/08 05:05:45;;;;;;;16.88;10.95;;;-1.70;87.10;;;;;;5092473;28;20028;-70
2024/01/08 05:08:10;;;;;;;18.38;10.93;;;-1.70;87.00;;;;;;5091000;28;20111;-71
2024/01/08 05:10:36;;;;;;;19.52;11.20;;;-1.70;87.30;;;;;;5092557;28;20056;-70
2024/01/08 05:13:02;;;;;;;17.92;10.63;;;-1.70;87.20;;;;;;5092405;28;20369;-71
2024/01/08 05:15:28;;;;;;;17.33;10.70;;;-1.70;87.40;;;;;;5096215;28;20047;-70
2024/01/08 05:17:53;;;;;;;17.98;11.10;;;-1.70;86.80;;;;;;5112991;28;20406;-71
2024/01/08 05:20:19;;;;;;;15.77;10.95;;;-1.70;86.40;;;;;;5112584;28;20063;-72
2024/01/08 05:22:46;;;;;;;18.95;11.15;;;-1.70;86.50;;;;;;5112901;28;20023;-71
2024/01/08 05:25:11;;;;;;;16.17;10.80;;;-1.70;86.60;;;;;;5112485;28;20091;-71
2024/01/08 05:27:37;;;;;;;21.85;11.27;;;-1.80;86.70;;;;;;5112493;28;20050;-70
2024/01/08 05:30:04;;;;;;;19.13;11.38;;;-1.80;86.20;;;;;;5112289;28;20112;-70
2024/01/08 05:32:29;;;;;;;17.23;11.43;;;-1.80;86.60;;;;;;5110341;28;20145;-71
2024/01/08 05:34:55;;;;;;;17.58;11.02;;;-1.90;87.10;;;;;;5092096;28;20095;-71
2024/01/08 05:37:21;;;;;;;17.65;12.07;;;-1.90;87.30;;;;;;5091319;28;20401;-71
2024/01/08 05:39:46;;;;;;;17.88;11.10;;;-1.90;87.60;;;;;;5095132;28;20050;-72
2024/01/08 05:42:12;;;;;;;16.13;10.82;;;-1.90;87.20;;;;;;5102960;28;20039;-71
2024/01/08 05:44:37;;;;;;;20.25;11.40;;;-1.90;86.70;;;;;;5104868;28;20507;-72
2024/01/08 05:47:04;;;;;;;18.52;10.93;;;-1.90;86.50;;;;;;5102655;28;20157;-71
2024/01/08 05:49:29;;;;;;;16.35;10.63;;;-1.90;86.50;;;;;;5109510;28;20027;-70
2024/01/08 05:51:55;;;;;;;18.38;12.35;;;-1.90;86.70;;;;;;5106925;28;20401;-71
2024/01/08 05:54:21;;;;;;;16.48;10.95;;;-1.90;86.90;;;;;;5111456;28;20024;-72
2024/01/08 05:56:46;;;;;;;17.58;11.40;;;-1.90;86.90;;;;;;5112590;28;20042;-71
2024/01/08 05:59:12;;;;;;;20.92;11.45;;;-1.90;86.50;;;;;;5109974;28;20050;-71
2024/01/08 06:01:39;;;;;;;19.17;11.90;;;-1.90;86.70;;;;;;5112253;28;20043;-71
2024/01/08 06:04:05;;;;;;;20.73;11.50;;;-1.90;86.40;;;;;;5111319;28;20039;-70
2024/01/08 06:06:31;;;;;;;19.85;11.55;;;-1.90;86.70;;;;;;5112297;28;20024;-71
2024/01/08 06:08:57;;;;;;;20.15;12.35;;;-1.90;86.60;;;;;;5106426;28;20032;-70
2024/01/08 06:11:24;;;;;;;16.20;10.80;;;-1.90;86.80;;;;;;5090593;28;20028;-71
2024/01/08 06:13:49;;;;;;;19.25;11.77;;;-1.90;86.50;;;;;;5091432;28;20118;-71
2024/01/08 06:16:16;;;;;;;18.20;11.30;;;-1.90;86.50;;;;;;5090888;28;20183;-70
2024/01/08 06:18:42;;;;;;;18.70;11.68;;;-1.90;86.00;;;;;;5091316;28;20028;-70
2024/01/08 06:21:07;;;;;;;18.02;12.40;;;-1.90;86.00;;;;;;5086085;28;20032;-70
2024/01/08 06:23:33;;;;;;;20.23;11.95;;;-1.90;85.80;;;;;;5089491;28;20067;-70
2024/01/08 06:26:02;;;;;;;18.52;12.05;;;-2.00;86.20;;;;;;5091140;28;20348;-70
2024/01/08 06:28:28;;;;;;;20.92;12.10;;;-2.00;86.40;;;;;;5087253;28;20020;-70
2024/01/08 06:30:54;;;;;;;20.17;12.63;;;-2.00;86.70;;;;;;5091105;28;20107;-70
2024/01/08 06:33:20;;;;;;;17.25;12.00;;;-2.00;86.40;;;;;;5089183;28;20555;-71
2024/01/08 06:35:45;;;;;;;17.85;11.85;;;-2.00;86.10;;;;;;5087861;28;20020;-72
2024/01/08 06:38:11;;;;;;;19.52;11.93;;;-2.10;86.00;;;;;;5090916;28;20376;-71
2024/01/08 06:40:36;;;;;;;18.63;11.98;;;-2.10;86.20;;;;;;5088127;28;20047;-71
2024/01/08 06:43:02;;;;;;;19.30;11.73;;;-2.10;86.90;;;;;;5090545;28;20406;-71
2024/01/08 06:45:28;;;;;;;19.65;11.85;;;-2.10;86.50;;;;;;5089936;28;20028;-70
2024/01/08 06:47:54;;;;;;;18.15;11.45;;;-2.10;86.40;;;;;;5091491;28;20027;-71
2024/01/08 06:50:20;;;;;;;17.45;11.77;;;-2.20;86.70;;;;;;5090877;28;20028;-72
2024/01/08 06:52:47;;;;;;;21.70;12.68;;;-2.10;86.90;;;;;;5090119;28;20380;-70
2024/01/08 06:55:12;;;;;;;18.08;12.18;;;-2.10;86.90;;;;;;5089903;28;20024;-71
2024/01/08 06:57:38;;;;;;;20.08;12.43;;;-2.10;87.00;;;;;;5089517;28;20518;-70
2024/01/08 07:00:05;;;;;;;19.15;11.60;;;-2.10;86.60;;;;;;5090303;28;20142;-69
2024/01/08 07:02:31;;;;;;;17.33;11.60;;;-2.10;86.30;;;;;;5090821;28;20032;-71
2024/01/08 07:04:56;;;;;;;17.88;11.68;;;-2.10;86.20;;;;;;5095219;28;20027;-72
2024/01/08 07:07:22;;;;;;;21.08;12.63;;;-2.10;86.30;;;;;;5094464;28;20024;-73
2024/01/08 07:09:47;;;;;;;19.95;12.07;;;-2.10;87.20;;;;;;5094830;28;20437;-73
2024/01/08 07:12:13;;;;;;;20.05;11.88;;;-2.20;86.80;;;;;;5094232;28;20032;-73
2024/01/08 07:14:45;;;;;;;21.90;11.68;;;-2.20;87.30;;;;;;5109165;28;20027;-72
2024/01/08 07:17:11;;;;;;;17.80;11.68;;;-2.10;87.30;;;;;;5113219;28;20085;-73
2024/01/08 07:19:36;;;;;;;18.25;11.40;;;-2.10;87.30;;;;;;5115200;28;20487;-73
2024/01/08 07:22:02;;;;;;;19.98;12.27;;;-2.20;86.70;;;;;;5114923;28;20106;-72
2024/01/08 07:24:28;;;;;;;21.42;12.60;;;-2.10;87.00;;;;;;5113142;28;20456;-71
2024/01/08 07:26:54;;;;;;;22.02;12.27;;;-2.10;86.70;;;;;;5113054;28;20115;-72
2024/01/08 07:29:19;;;;;;;19.38;12.55;;;-2.10;86.90;;;;;;5113171;28;20443;-70
2024/01/08 07:31:45;;;;;;;17.60;11.50;;;-2.10;87.20;;;;;;5114696;28;20091;-73
2024/01/08 07:34:11;;;;;;;19.02;11.77;;;-2.10;87.30;;;;;;5114924;28;20106;-72
2024/01/08 07:36:36;;;;;;;19.85;12.18;;;-2.10;86.90;;;;;;5113691;28;20118;-71
2024/01/08 07:39:02;;;;;;;17.80;11.55;;;-2.10;87.30;;;;;;5114890;28;20023;-71
2024/01/08 07:41:28;;;;;;;17.73;11.75;;;-2.10;87.60;;;;;;5114040;28;20042;-72
2024/01/08 07:43:53;;;;;;;28.02;11.98;;;-2.10;87.40;;;;;;5114491;28;20108;-71
2024/01/08 07:46:19;;;;;;;18.00;11.93;;;-2.10;87.30;;;;;;5113112;28;20038;-71
2024/01/08 07:48:44;;;;;;;19.75;11.82;;;-2.10;87.20;;;;;;5114346;28;20027;-71
2024/01/08 07:51:10;;;;;;;17.08;11.75;;;-2.10;87.60;;;;;;5113933;28;20027;-71
2024/01/08 07:53:36;;;;;;;19.92;12.63;;;-2.10;87.60;;;;;;5114525;28;20037;-71
2024/01/08 07:56:02;;;;;;;20.73;12.25;;;-2.10;87.60;;;;;;5114462;28;20104;-72
2024/01/08 07:58:29;;;;;;;19.80;12.85;;;-2.10;87.60;;;;;;5113522;28;20094;-71
2024/01/08 08:00:54;;;;;;;21.33;11.80;;;-2.20;87.40;;;;;;5114511;28;20032;-71
2024/01/08 08:03:20;;;;;;;22.98;13.10;;;-2.20;87.60;;;;;;5113894;28;20085;-71
2024/01/08 08:05:46;;;;;;;19.13;12.02;;;-2.10;87.60;;;;;;5114052;28;20035;-72
2024/01/08 08:08:12;;;;;;;18.67;12.98;;;-2.20;87.70;;;;;;5113989;28;20023;-71
2024/01/08 08:10:37;;;;;;;19.60;12.98;;;-2.10;87.90;;;;;;5112892;28;20054;-73
2024/01/08 08:13:03;;;;;;;22.52;13.38;;;-2.20;87.80;;;;;;5093795;28;20043;-72
2024/01/08 08:15:29;;;;;;;18.45;12.63;;;-2.20;88.10;;;;;;5093248;28;20033;-71
2024/01/08 08:17:55;;;;;;;19.85;13.38;;;-2.20;88.50;;;;;;5092965;28;20035;-72
2024/01/08 08:20:21;;;;;;;19.33;12.70;;;-2.20;88.60;;;;;;5093741;28;20157;-72
2024/01/08 08:22:47;;;;;;;20.27;13.80;;;-2.20;88.70;;;;;;5094089;28;20465;-71
2024/01/08 08:25:12;;;;;;;22.77;13.82;;;-2.20;89.00;;;;;;5093824;28;20036;-72
2024/01/08 08:27:38;;;;;;;24.20;13.98;;;-2.10;89.10;;;;;;5094165;28;20035;-72
2024/01/08 08:30:04;;;;;;;20.10;12.30;;;-2.10;89.00;;;;;;5094384;28;20043;-73
2024/01/08 08:32:30;;;;;;;23.08;13.20;;;-2.10;89.00;;;;;;5092272;28;20157;-72
2024/01/08 08:34:55;;;;;;;22.40;14.15;;;-2.10;89.50;;;;;;5092595;28;20050;-72
2024/01/08 08:37:21;;;;;;;20.55;12.63;;;-2.10;89.90;;;;;;5093544;28;20031;-72
2024/01/08 08:39:47;;;;;;;22.95;14.52;;;-2.10;90.10;;;;;;5092353;28;20086;-72
2024/01/08 08:42:12;;;;;;;21.48;13.88;;;-2.10;90.50;;;;;;5093360;28;20059;-73
2024/01/08 08:44:38;;;;;;;20.60;12.95;;;-2.10;90.60;;;;;;5093484;28;20147;-72
2024/01/08 08:47:04;;;;;;;23.00;14.38;;;-2.10;90.90;;;;;;5094044;28;20110;-72
2024/01/08 08:49:30;;;;;;;21.50;13.32;;;-2.10;91.10;;;;;;5091944;28;20024;-72
2024/01/08 08:51:55;;;;;;;21.33;13.32;;;-2.10;91.30;;;;;;5093706;28;20107;-72
2024/01/08 08:54:21;;;;;;;22.48;14.13;;;-2.10;91.10;;;;;;5091834;28;20093;-72
2024/01/08 08:56:47;;;;;;;21.83;14.23;;;-2.10;91.10;;;;;;5092917;28;20028;-71
2024/01/08 08:59:12;;;;;;;23.45;14.38;;;-2.20;91.40;;;;;;5092874;28;20040;-71
2024/01/08 09:01:38;;;;;;;21.63;14.13;;;-2.20;91.50;;;;;;5093437;28;20088;-73
2024/01/08 09:04:04;;;;;;;21.60;14.20;;;-2.20;91.50;;;;;;5093617;28;20056;-72
2024/01/08 09:06:34;;;;;;;23.50;15.55;;;-2.20;91.40;;;;;;5092576;28;20032;-72
2024/01/08 09:09:00;;;;;;;23.38;14.90;;;-2.20;91.20;;;;;;5093485;28;20020;-72
2024/01/08 09:11:27;;;;;;;22.65;15.32;;;-2.20;91.00;;;;;;5091645;28;20035;-72
2024/01/08 09:13:53;;;;;;;23.88;15.48;;;-2.20;91.10;;;;;;5091906;28;20028;-72
2024/01/08 09:16:18;;;;;;;24.42;15.73;;;-2.20;91.20;;;;;;5092898;28;20028;-73
2024/01/08 09:18:45;;;;;;;21.25;14.00;;;-2.20;91.20;;;;;;5093157;28;20028;-72
2024/01/08 09:21:11;;;;;;;22.02;14.98;;;-2.20;91.40;;;;;;5106674;28;20031;-72
2024/01/08 09:23:41;;;;;;;28.15;16.27;;;-2.20;91.60;;;;;;5112848;28;20028;-72
2024/01/08 09:26:07;;;;;;;22.55;15.23;;;-2.20;91.90;;;;;;5112875;28;20032;-72
2024/01/08 09:28:33;;;;;;;25.67;17.20;;;-2.20;91.90;;;;;;5113048;28;20045;-71
2024/01/08 09:31:01;;;;;;;27.63;16.88;;;-2.20;91.90;;;;;;5113448;28;20020;-73
2024/01/08 09:33:26;;;;;;;23.90;16.38;;;-2.30;92.10;;;;;;5113173;28;20035;-73
2024/01/08 09:35:52;;;;;;;25.50;16.10;;;-2.30;92.50;;;;;;5112978;28;20031;-72
2024/01/08 09:38:18;;;;;;;30.77;17.95;;;-2.30;92.90;;;;;;5112562;28;20117;-72
2024/01/08 09:40:43;;;;;;;29.05;17.70;;;-2.30;93.20;;;;;;5113119;28;20032;-72
2024/01/08 09:43:12;;;;;;;26.08;17.45;;;-2.30;93.70;;;;;;5112966;28;20034;-72
2024/01/08 09:45:47;;;;;;;28.77;17.52;;;-2.30;93.90;;;;;;5112822;28;20024;-72
2024/01/08 09:48:13;;;;;;;27.42;17.70;;;-2.40;94.20;;;;;;5111599;28;20050;-72
2024/01/08 09:50:39;;;;;;;26.85;17.17;;;-2.40;94.60;;;;;;5111083;28;20024;-72
2024/01/08 09:53:05;;;;;;;27.35;17.27;;;-2.40;94.80;;;;;;5113467;28;20030;-71
2024/01/08 09:55:33;;;;;;;27.30;17.63;;;-2.40;95.10;;;;;;5112594;28;20380;-72
2024/01/08 09:58:01;;;;;;;25.90;16.60;;;-2.40;95.30;;;;;;5113048;28;20027;-71
2024/01/08 10:00:26;;;;;;;29.67;18.38;;;-2.40;95.50;;;;;;5112802;28;20138;-71
2024/01/08 10:02:56;;;;;;;28.05;18.20;;;-2.40;95.60;;;;;;5111634;28;20533;-72
2024/01/08 10:05:22;;;;;;;28.83;18.75;;;-2.40;95.80;;;;;;5111275;28;20144;-74
2024/01/08 10:07:48;;;;;;;26.02;18.60;;;-2.50;96.00;;;;;;5103792;28;20106;-72
2024/01/08 10:10:13;;;;;;;25.63;18.00;;;-2.50;96.50;;;;;;5092569;28;20105;-72
2024/01/08 10:12:42;;;;;;;28.55;18.73;;;-2.50;96.70;;;;;;5092135;28;20443;-72
2024/01/08 10:15:10;;;;;;;29.63;19.95;;;-2.50;96.90;;;;;;5092711;28;20035;-72
2024/01/08 10:17:36;;;;;;;27.15;18.02;;;-2.50;97.20;;;;;;5092017;28;20030;-71
2024/01/08 10:20:06;;;;;;;28.95;18.02;;;-2.50;97.50;;;;;;5092051;28;20057;-72
2024/01/08 10:22:32;;;;;;;32.33;20.20;;;-2.50;97.90;;;;;;5092012;28;20028;-72
2024/01/08 10:25:02;;;;;;;28.58;19.27;;;-2.50;98.10;;;;;;5092140;28;20028;-72
2024/01/08 10:27:29;;;;;;;28.00;20.08;;;-2.50;98.50;;;;;;5092228;28;20020;-73
2024/01/08 10:29:54;;;;;;;29.05;19.38;;;-2.50;98.10;;;;;;5090999;28;20073;-73
2024/01/08 10:32:23;;;;;;;28.40;19.67;;;-2.50;98.50;;;;;;5091714;28;20024;-72
2024/01/08 10:34:52;;;;;;;31.00;19.60;;;-2.50;98.60;;;;;;5092016;28;20020;-71
2024/01/08 10:37:21;;;;;;;27.90;19.52;;;-2.50;98.70;;;;;;5092721;28;20024;-73
2024/01/08 10:39:49;;;;;;;31.08;19.80;;;-2.50;99.00;;;;;;5095840;28;20101;-72
2024/01/08 10:42:15;;;;;;;31.63;19.83;;;-2.50;98.90;;;;;;5095941;28;20517;-73
2024/01/08 10:44:41;;;;;;;29.98;19.45;;;-2.50;99.00;;;;;;5095465;28;20060;-73
2024/01/08 10:47:10;;;;;;;27.88;20.10;;;-2.50;99.10;;;;;;5094850;28;20036;-73
2024/01/08 10:49:36;;;;;;;26.88;18.95;;;-2.50;99.00;;;;;;5095676;28;20081;-73
2024/01/08 10:52:23;;;;;;;28.92;19.75;;;-2.50;99.10;;;;;;5095789;28;20532;-72
2024/01/08 10:54:53;;;;;;;25.67;18.50;;;-2.50;99.20;;;;;;5095890;28;20024;-72
2024/01/08 10:57:23;;;;;;;28.42;19.40;;;-2.50;99.40;;;;;;5095644;28;20126;-72
2024/01/08 10:59:51;;;;;;;28.60;18.83;;;-2.50;99.50;;;;;;5095665;28;20044;-71
2024/01/08 11:02:17;;;;;;;26.67;18.40;;;-2.50;98.90;;;;;;5095891;28;20027;-72
2024/01/08 11:04:43;;;;;;;27.42;17.80;;;-2.50;98.60;;;;;;5094659;28;20020;-73
2024/01/08 11:07:15;;;;;;;29.80;18.45;;;-2.50;98.20;;;;;;5094425;28;20041;-72
2024/01/08 11:09:41;;;;;;;29.60;20.15;;;-2.50;98.10;;;;;;5093802;28;20032;-73
2024/01/08 11:12:10;;;;;;;28.27;18.88;;;-2.50;97.90;;;;;;5095886;28;20078;-72
2024/01/08 11:14:38;;;;;;;27.90;18.20;;;-2.50;97.60;;;;;;5095516;28;20067;-72
2024/01/08 11:17:08;;;;;;;28.98;19.65;;;-2.50;97.60;;;;;;5095342;28;20136;-72
2024/01/08 11:19:40;;;;;;;30.17;19.02;;;-2.50;97.70;;;;;;5095069;28;20135;-72
2024/01/08 11:22:10;;;;;;;28.85;19.38;;;-2.50;97.80;;;;;;5093954;28;20054;-72
2024/01/08 11:24:37;;;;;;;31.25;20.80;;;-2.40;97.90;;;;;;5095337;28;20350;-73
2024/01/08 11:27:02;;;;;;;26.13;18.25;;;-2.40;97.60;;;;;;5095956;28;20024;-74
2024/01/08 11:29:28;;;;;;;25.98;18.58;;;-2.40;97.80;;;;;;5111503;28;20101;-73
2024/01/08 11:32:29;;;;;;;26.98;17.50;;;-2.40;97.90;;;;;;5115935;28;20036;-72
2024/01/08 11:35:03;;;;;;;29.40;18.88;;;-2.40;97.50;;;;;;5082698;28;20068;-73
2024/01/08 11:37:32;;;;;;;28.60;18.83;;;-2.30;97.40;;;;;;5115267;28;20034;-73
2024/01/08 11:40:02;;;;;;;28.48;19.02;;;-2.40;97.10;;;;;;5115512;28;20085;-72
2024/01/08 11:42:29;;;;;;;27.42;18.73;;;-2.40;97.10;;;;;;5115134;28;20376;-73
2024/01/08 11:44:58;;;;;;;29.77;18.92;;;-2.40;96.90;;;;;;5115556;28;20034;-72
2024/01/08 11:47:23;;;;;;;30.15;19.25;;;-2.40;97.00;;;;;;5115135;28;20030;-74
2024/01/08 11:49:51;;;;;;;28.75;18.50;;;-2.30;97.10;;;;;;5114869;28;20440;-72
2024/01/08 11:52:18;;;;;;;27.45;18.08;;;-2.30;97.20;;;;;;5113900;28;20078;-72
2024/01/08 11:54:48;;;;;;;30.75;18.80;;;-2.20;97.10;;;;;;5114817;28;20023;-72
2024/01/08 11:57:15;;;;;;;28.08;18.63;;;-2.20;96.40;;;;;;5113966;28;20027;-72
2024/01/08 11:59:40;;;;;;;30.17;18.67;;;-2.20;95.40;;;;;;5114458;28;20453;-72
2024/01/08 12:02:20;;;;;;;27.00;17.80;;;-2.20;95.10;;;;;;5115109;28;20110;-72
2024/01/08 12:04:56;;;;;;;30.45;18.38;;;-2.20;94.80;;;;;;5114190;28;20027;-72
2024/01/08 12:07:27;;;;;;;28.70;18.52;;;-2.20;94.60;;;;;;5115056;28;20023;-72
2024/01/08 12:09:54;;;;;;;28.70;17.50;;;-2.10;94.40;;;;;;5114982;28;20043;-72
2024/01/08 12:12:23;;;;;;;30.63;19.35;;;-2.10;93.80;;;;;;5098200;28;20036;-72
2024/01/08 12:14:49;;;;;;;25.15;16.85;;;-2.10;93.30;;;;;;5094055;28;20054;-72
2024/01/08 12:17:16;;;;;;;30.38;17.42;;;-2.10;93.00;;;;;;5094049;28;20419;-72
2024/01/08 12:19:50;;;;;;;29.58;17.90;;;-2.00;92.70;;;;;;5093541;28;20460;-72
2024/01/08 12:22:19;;;;;;;28.10;17.88;;;-2.00;92.20;;;;;;5094300;28;20111;-73
2024/01/08 12:24:49;;;;;;;28.38;16.92;;;-2.00;92.00;;;;;;5093804;28;20028;-73